sensor_id;sensor_type;location;lat;lon;timestamp;P1;durP1;ratioP1;P2;durP2;ratioP2
31866;SDS011;18431;45.580;-122.680;2022-07-29T00:02:08;2.75;;;2.55;;
31866;SDS011;18431;45.580;-122.680;2022-07-29T00:04:38;2.10;;;2.00;;
31866;SDS011;18431;45.580;-122.680;2022-07-29T00:07:07;2.30;;;2.10;;
31866;SDS011;18431;45.580;-122.680;2022-07-29T00:09:37;2.20;;;2.10;;
31866;SDS011;18431;45.580;-122.680;2022-07-29T00:12:07;2.20;;;2.10;;
31866;SDS011;18431;45.580;-122.680;2022-07-29T00:14:37;2.40;;;2.20;;
31866;SDS011;18431;45.580;-122.680;2022-07-29T00:17:07;2.30;;;2.10;;
31866;SDS011;18431;45.580;-122.680;2022-07-29T00:19:37;2.10;;;2.00;;
31866;SDS011;18431;45.580;-122.680;2022-07-29T00:22:07;2.87;;;2.67;;
31866;SDS011;18431;45.580;-122.680;2022-07-29T00:24:36;2.95;;;2.75;;
31866;SDS011;18431;45.580;-122.680;2022-07-29T00:27:06;2.60;;;2.40;;
31866;SDS011;18431;45.580;-122.680;2022-07-29T00:29:36;3.00;;;2.80;;
31866;SDS011;18431;45.580;-122.680;2022-07-29T00:32:06;2.20;;;2.10;;
31866;SDS011;18431;45.580;-122.680;2022-07-29T00:34:36;2.47;;;2.30;;
31866;SDS011;18431;45.580;-122.680;2022-07-29T00:37:23;2.20;;;2.10;;
31866;SDS011;18431;45.580;-122.680;2022-07-29T00:39:53;2.22;;;2.12;;
31866;SDS011;18431;45.580;-122.680;2022-07-29T00:42:23;2.20;;;2.10;;
31866;SDS011;18431;45.580;-122.680;2022-07-29T00:44:53;2.30;;;2.15;;
31866;SDS011;18431;45.580;-122.680;2022-07-29T00:47:23;2.40;;;2.20;;
31866;SDS011;18431;45.580;-122.680;2022-07-29T00:49:53;2.52;;;2.02;;
31866;SDS011;18431;45.580;-122.680;2022-07-29T00:52:23;3.40;;;2.50;;
31866;SDS011;18431;45.580;-122.680;2022-07-29T00:54:53;2.60;;;2.40;;
31866;SDS011;18431;45.580;-122.680;2022-07-29T00:57:23;2.72;;;2.52;;
31866;SDS011;18431;45.580;-122.680;2022-07-29T00:59:53;2.75;;;2.55;;
31866;SDS011;18431;45.580;-122.680;2022-07-29T01:02:23;1.98;;;1.87;;
31866;SDS011;18431;45.580;-122.680;2022-07-29T01:04:52;2.30;;;2.10;;
31866;SDS011;18431;45.580;-122.680;2022-07-29T01:07:29;2.20;;;2.10;;
31866;SDS011;18431;45.580;-122.680;2022-07-29T01:09:56;2.35;;;2.25;;
31866;SDS011;18431;45.580;-122.680;2022-07-29T01:12:27;2.25;;;2.15;;
31866;SDS011;18431;45.580;-122.680;2022-07-29T01:15:00;2.10;;;2.00;;
31866;SDS011;18431;45.580;-122.680;2022-07-29T01:26:00;2.60;;;2.40;;
31866;SDS011;18431;45.580;-122.680;2022-07-29T01:28:37;2.98;;;2.67;;
31866;SDS011;18431;45.580;-122.680;2022-07-29T01:31:05;2.67;;;2.40;;
31866;SDS011;18431;45.580;-122.680;2022-07-29T01:33:38;2.33;;;2.20;;
31866;SDS011;18431;45.580;-122.680;2022-07-29T01:36:30;2.60;;;2.40;;
31866;SDS011;18431;45.580;-122.680;2022-07-29T01:39:19;2.40;;;2.30;;
31866;SDS011;18431;45.580;-122.680;2022-07-29T01:41:38;2.40;;;2.30;;
31866;SDS011;18431;45.580;-122.680;2022-07-29T01:47:13;3.00;;;2.70;;
31866;SDS011;18431;45.580;-122.680;2022-07-29T01:49:39;3.37;;;3.05;;
31866;SDS011;18431;45.580;-122.680;2022-07-29T01:52:19;2.65;;;2.45;;
31866;SDS011;18431;45.580;-122.680;2022-07-29T01:54:52;2.62;;;2.42;;
31866;SDS011;18431;45.580;-122.680;2022-07-29T01:57:29;2.40;;;2.30;;
31866;SDS011;18431;45.580;-122.680;2022-07-29T01:59:55;2.15;;;2.05;;
31866;SDS011;18431;45.580;-122.680;2022-07-29T02:02:27;3.00;;;2.80;;
31866;SDS011;18431;45.580;-122.680;2022-07-29T02:04:58;2.85;;;2.62;;
31866;SDS011;18431;45.580;-122.680;2022-07-29T02:07:30;2.70;;;2.50;;
31866;SDS011;18431;45.580;-122.680;2022-07-29T02:10:02;3.12;;;2.50;;
31866;SDS011;18431;45.580;-122.680;2022-07-29T02:12:33;2.42;;;2.30;;
31866;SDS011;18431;45.580;-122.680;2022-07-29T02:15:05;3.65;;;2.77;;
31866;SDS011;18431;45.580;-122.680;2022-07-29T02:17:53;3.42;;;2.50;;
31866;SDS011;18431;45.580;-122.680;2022-07-29T02:20:11;2.95;;;2.70;;
31866;SDS011;18431;45.580;-122.680;2022-07-29T02:22:41;2.98;;;2.50;;
31866;SDS011;18431;45.580;-122.680;2022-07-29T02:25:12;3.62;;;2.40;;
31866;SDS011;18431;45.580;-122.680;2022-07-29T02:27:44;5.75;;;2.22;;
31866;SDS011;18431;45.580;-122.680;2022-07-29T02:30:15;2.70;;;2.50;;
31866;SDS011;18431;45.580;-122.680;2022-07-29T02:35:34;2.75;;;2.55;;
31866;SDS011;18431;45.580;-122.680;2022-07-29T02:38:05;2.95;;;2.10;;
31866;SDS011;18431;45.580;-122.680;2022-07-29T02:40:54;2.95;;;2.65;;
31866;SDS011;18431;45.580;-122.680;2022-07-29T02:43:25;2.35;;;2.20;;
31866;SDS011;18431;45.580;-122.680;2022-07-29T02:45:56;2.37;;;2.20;;
31866;SDS011;18431;45.580;-122.680;2022-07-29T02:48:37;2.12;;;2.02;;
31866;SDS011;18431;45.580;-122.680;2022-07-29T02:51:12;2.12;;;2.00;;
31866;SDS011;18431;45.580;-122.680;2022-07-29T02:53:44;2.20;;;2.10;;
31866;SDS011;18431;45.580;-122.680;2022-07-29T02:56:16;1.98;;;1.87;;
31866;SDS011;18431;45.580;-122.680;2022-07-29T02:58:50;1.98;;;1.87;;
31866;SDS011;18431;45.580;-122.680;2022-07-29T03:01:21;1.82;;;1.72;;
31866;SDS011;18431;45.580;-122.680;2022-07-29T03:03:52;1.90;;;1.80;;
31866;SDS011;18431;45.580;-122.680;2022-07-29T03:06:24;2.00;;;1.72;;
31866;SDS011;18431;45.580;-122.680;2022-07-29T03:08:55;1.82;;;1.72;;
31866;SDS011;18431;45.580;-122.680;2022-07-29T03:11:25;1.70;;;1.60;;
31866;SDS011;18431;45.580;-122.680;2022-07-29T03:13:57;1.55;;;1.50;;
31866;SDS011;18431;45.580;-122.680;2022-07-29T03:16:27;1.47;;;1.37;;
31866;SDS011;18431;45.580;-122.680;2022-07-29T03:18:57;1.60;;;1.50;;
31866;SDS011;18431;45.580;-122.680;2022-07-29T03:21:27;1.50;;;1.40;;
31866;SDS011;18431;45.580;-122.680;2022-07-29T03:23:57;1.40;;;1.40;;
31866;SDS011;18431;45.580;-122.680;2022-07-29T03:26:27;1.30;;;1.30;;
31866;SDS011;18431;45.580;-122.680;2022-07-29T03:28:57;1.57;;;1.47;;
31866;SDS011;18431;45.580;-122.680;2022-07-29T03:31:28;1.17;;;1.17;;
31866;SDS011;18431;45.580;-122.680;2022-07-29T03:33:57;1.22;;;1.22;;
31866;SDS011;18431;45.580;-122.680;2022-07-29T03:36:27;1.50;;;1.40;;
31866;SDS011;18431;45.580;-122.680;2022-07-29T03:38:57;1.45;;;1.40;;
31866;SDS011;18431;45.580;-122.680;2022-07-29T03:41:28;1.20;;;1.10;;
31866;SDS011;18431;45.580;-122.680;2022-07-29T03:43:59;0.88;;;0.88;;
31866;SDS011;18431;45.580;-122.680;2022-07-29T03:46:30;1.00;;;1.00;;
31866;SDS011;18431;45.580;-122.680;2022-07-29T03:49:02;1.12;;;1.12;;
31866;SDS011;18431;45.580;-122.680;2022-07-29T03:51:35;0.90;;;0.90;;
31866;SDS011;18431;45.580;-122.680;2022-07-29T03:54:07;0.70;;;0.70;;
31866;SDS011;18431;45.580;-122.680;2022-07-29T03:56:42;0.88;;;0.88;;
31866;SDS011;18431;45.580;-122.680;2022-07-29T03:59:16;0.80;;;0.80;;
31866;SDS011;18431;45.580;-122.680;2022-07-29T04:01:48;0.82;;;0.82;;
31866;SDS011;18431;45.580;-122.680;2022-07-29T04:04:18;0.95;;;0.95;;
31866;SDS011;18431;45.580;-122.680;2022-07-29T04:06:48;0.80;;;0.80;;
31866;SDS011;18431;45.580;-122.680;2022-07-29T04:09:18;0.80;;;0.80;;
31866;SDS011;18431;45.580;-122.680;2022-07-29T04:11:47;0.90;;;0.90;;
31866;SDS011;18431;45.580;-122.680;2022-07-29T04:14:19;0.90;;;0.80;;
31866;SDS011;18431;45.580;-122.680;2022-07-29T04:16:50;0.90;;;0.90;;
31866;SDS011;18431;45.580;-122.680;2022-07-29T04:19:20;1.10;;;1.10;;
31866;SDS011;18431;45.580;-122.680;2022-07-29T04:21:50;1.15;;;1.15;;
31866;SDS011;18431;45.580;-122.680;2022-07-29T04:24:20;1.00;;;1.00;;
31866;SDS011;18431;45.580;-122.680;2022-07-29T04:26:50;1.10;;;1.00;;
31866;SDS011;18431;45.580;-122.680;2022-07-29T04:29:19;1.00;;;1.00;;
31866;SDS011;18431;45.580;-122.680;2022-07-29T04:31:51;1.10;;;1.10;;
31866;SDS011;18431;45.580;-122.680;2022-07-29T04:34:21;2.02;;;0.98;;
31866;SDS011;18431;45.580;-122.680;2022-07-29T04:36:51;1.22;;;1.10;;
31866;SDS011;18431;45.580;-122.680;2022-07-29T04:39:21;1.15;;;1.15;;
31866;SDS011;18431;45.580;-122.680;2022-07-29T04:41:51;1.00;;;1.00;;
31866;SDS011;18431;45.580;-122.680;2022-07-29T04:44:21;1.17;;;1.17;;
31866;SDS011;18431;45.580;-122.680;2022-07-29T04:46:51;0.95;;;0.95;;
31866;SDS011;18431;45.580;-122.680;2022-07-29T04:49:21;1.02;;;1.02;;
31866;SDS011;18431;45.580;-122.680;2022-07-29T04:51:51;1.52;;;1.10;;
31866;SDS011;18431;45.580;-122.680;2022-07-29T04:54:21;1.50;;;1.40;;
31866;SDS011;18431;45.580;-122.680;2022-07-29T04:56:51;1.05;;;1.05;;
31866;SDS011;18431;45.580;-122.680;2022-07-29T04:59:20;1.35;;;1.20;;
31866;SDS011;18431;45.580;-122.680;2022-07-29T05:01:50;1.30;;;1.20;;
31866;SDS011;18431;45.580;-122.680;2022-07-29T05:04:20;1.30;;;1.10;;
31866;SDS011;18431;45.580;-122.680;2022-07-29T05:06:50;1.00;;;1.00;;
31866;SDS011;18431;45.580;-122.680;2022-07-29T05:09:20;1.22;;;1.22;;
31866;SDS011;18431;45.580;-122.680;2022-07-29T05:11:50;1.00;;;1.00;;
31866;SDS011;18431;45.580;-122.680;2022-07-29T05:14:20;1.20;;;1.10;;
31866;SDS011;18431;45.580;-122.680;2022-07-29T05:16:52;1.60;;;1.00;;
31866;SDS011;18431;45.580;-122.680;2022-07-29T05:19:23;1.17;;;1.17;;
31866;SDS011;18431;45.580;-122.680;2022-07-29T05:21:53;1.00;;;1.00;;
31866;SDS011;18431;45.580;-122.680;2022-07-29T05:24:23;1.10;;;1.10;;
31866;SDS011;18431;45.580;-122.680;2022-07-29T05:26:53;1.05;;;1.05;;
31866;SDS011;18431;45.580;-122.680;2022-07-29T05:29:23;1.10;;;1.10;;
31866;SDS011;18431;45.580;-122.680;2022-07-29T05:31:53;1.27;;;1.17;;
31866;SDS011;18431;45.580;-122.680;2022-07-29T05:34:23;1.00;;;1.00;;
31866;SDS011;18431;45.580;-122.680;2022-07-29T05:36:54;0.85;;;0.85;;
31866;SDS011;18431;45.580;-122.680;2022-07-29T05:39:23;1.20;;;1.20;;
31866;SDS011;18431;45.580;-122.680;2022-07-29T05:41:53;1.02;;;1.02;;
31866;SDS011;18431;45.580;-122.680;2022-07-29T05:44:23;1.27;;;1.15;;
31866;SDS011;18431;45.580;-122.680;2022-07-29T05:46:53;0.93;;;0.93;;
31866;SDS011;18431;45.580;-122.680;2022-07-29T05:49:23;1.32;;;1.32;;
31866;SDS011;18431;45.580;-122.680;2022-07-29T05:51:53;1.25;;;1.25;;
31866;SDS011;18431;45.580;-122.680;2022-07-29T05:54:23;1.25;;;1.15;;
31866;SDS011;18431;45.580;-122.680;2022-07-29T05:56:53;1.00;;;1.00;;
31866;SDS011;18431;45.580;-122.680;2022-07-29T05:59:22;1.25;;;1.15;;
31866;SDS011;18431;45.580;-122.680;2022-07-29T06:01:52;1.15;;;1.15;;
31866;SDS011;18431;45.580;-122.680;2022-07-29T06:04:22;1.10;;;1.00;;
31866;SDS011;18431;45.580;-122.680;2022-07-29T06:06:52;1.20;;;1.20;;
31866;SDS011;18431;45.580;-122.680;2022-07-29T06:09:22;1.50;;;1.22;;
31866;SDS011;18431;45.580;-122.680;2022-07-29T06:11:53;1.00;;;1.00;;
31866;SDS011;18431;45.580;-122.680;2022-07-29T06:14:22;1.20;;;1.10;;
31866;SDS011;18431;45.580;-122.680;2022-07-29T06:16:53;1.15;;;1.15;;
31866;SDS011;18431;45.580;-122.680;2022-07-29T06:19:23;1.15;;;0.98;;
31866;SDS011;18431;45.580;-122.680;2022-07-29T06:21:53;1.07;;;1.02;;
31866;SDS011;18431;45.580;-122.680;2022-07-29T06:24:23;1.35;;;1.25;;
31866;SDS011;18431;45.580;-122.680;2022-07-29T06:26:53;1.10;;;1.10;;
31866;SDS011;18431;45.580;-122.680;2022-07-29T06:29:23;0.90;;;0.90;;
31866;SDS011;18431;45.580;-122.680;2022-07-29T06:31:53;1.05;;;1.05;;
31866;SDS011;18431;45.580;-122.680;2022-07-29T06:34:22;1.05;;;1.05;;
31866;SDS011;18431;45.580;-122.680;2022-07-29T06:36:52;1.10;;;1.10;;
31866;SDS011;18431;45.580;-122.680;2022-07-29T06:39:22;1.32;;;0.95;;
31866;SDS011;18431;45.580;-122.680;2022-07-29T06:41:52;0.93;;;0.93;;
31866;SDS011;18431;45.580;-122.680;2022-07-29T06:44:22;1.10;;;0.90;;
31866;SDS011;18431;45.580;-122.680;2022-07-29T06:46:52;1.00;;;1.00;;
31866;SDS011;18431;45.580;-122.680;2022-07-29T06:52:11;0.93;;;0.93;;
31866;SDS011;18431;45.580;-122.680;2022-07-29T06:54:41;0.93;;;0.93;;
31866;SDS011;18431;45.580;-122.680;2022-07-29T06:57:12;0.90;;;0.90;;
31866;SDS011;18431;45.580;-122.680;2022-07-29T06:59:42;0.82;;;0.82;;
31866;SDS011;18431;45.580;-122.680;2022-07-29T07:02:12;0.80;;;0.80;;
31866;SDS011;18431;45.580;-122.680;2022-07-29T07:04:42;0.90;;;0.90;;
31866;SDS011;18431;45.580;-122.680;2022-07-29T07:07:12;0.80;;;0.80;;
31866;SDS011;18431;45.580;-122.680;2022-07-29T07:09:41;0.90;;;0.90;;
31866;SDS011;18431;45.580;-122.680;2022-07-29T07:12:11;0.88;;;0.88;;
31866;SDS011;18431;45.580;-122.680;2022-07-29T07:14:41;0.88;;;0.80;;
31866;SDS011;18431;45.580;-122.680;2022-07-29T07:17:11;1.57;;;0.88;;
31866;SDS011;18431;45.580;-122.680;2022-07-29T07:19:41;1.02;;;1.00;;
31866;SDS011;18431;45.580;-122.680;2022-07-29T07:22:12;0.70;;;0.70;;
31866;SDS011;18431;45.580;-122.680;2022-07-29T07:24:42;0.68;;;0.68;;
31866;SDS011;18431;45.580;-122.680;2022-07-29T07:27:11;0.85;;;0.85;;
31866;SDS011;18431;45.580;-122.680;2022-07-29T07:29:41;0.80;;;0.80;;
31866;SDS011;18431;45.580;-122.680;2022-07-29T07:32:11;0.75;;;0.75;;
31866;SDS011;18431;45.580;-122.680;2022-07-29T07:34:42;0.70;;;0.70;;
31866;SDS011;18431;45.580;-122.680;2022-07-29T07:37:12;0.72;;;0.72;;
31866;SDS011;18431;45.580;-122.680;2022-07-29T07:39:42;0.80;;;0.80;;
31866;SDS011;18431;45.580;-122.680;2022-07-29T07:42:12;0.75;;;0.75;;
31866;SDS011;18431;45.580;-122.680;2022-07-29T07:44:42;0.75;;;0.75;;
31866;SDS011;18431;45.580;-122.680;2022-07-29T07:47:13;0.60;;;0.60;;
31866;SDS011;18431;45.580;-122.680;2022-07-29T07:49:50;0.80;;;0.80;;
31866;SDS011;18431;45.580;-122.680;2022-07-29T07:52:21;0.60;;;0.60;;
31866;SDS011;18431;45.580;-122.680;2022-07-29T07:54:51;1.05;;;0.85;;
31866;SDS011;18431;45.580;-122.680;2022-07-29T07:57:21;0.62;;;0.60;;
31866;SDS011;18431;45.580;-122.680;2022-07-29T07:59:51;0.60;;;0.60;;
31866;SDS011;18431;45.580;-122.680;2022-07-29T08:02:21;0.80;;;0.80;;
31866;SDS011;18431;45.580;-122.680;2022-07-29T08:04:50;0.80;;;0.70;;
31866;SDS011;18431;45.580;-122.680;2022-07-29T08:07:20;0.80;;;0.78;;
31866;SDS011;18431;45.580;-122.680;2022-07-29T08:09:50;0.60;;;0.60;;
31866;SDS011;18431;45.580;-122.680;2022-07-29T08:12:20;0.80;;;0.80;;
31866;SDS011;18431;45.580;-122.680;2022-07-29T08:14:50;0.70;;;0.70;;
31866;SDS011;18431;45.580;-122.680;2022-07-29T08:17:21;0.80;;;0.80;;
31866;SDS011;18431;45.580;-122.680;2022-07-29T08:19:51;0.60;;;0.60;;
31866;SDS011;18431;45.580;-122.680;2022-07-29T08:22:21;0.70;;;0.70;;
31866;SDS011;18431;45.580;-122.680;2022-07-29T08:24:50;1.35;;;0.80;;
31866;SDS011;18431;45.580;-122.680;2022-07-29T08:27:21;0.80;;;0.80;;
31866;SDS011;18431;45.580;-122.680;2022-07-29T08:29:51;0.60;;;0.60;;
31866;SDS011;18431;45.580;-122.680;2022-07-29T08:32:22;0.80;;;0.80;;
31866;SDS011;18431;45.580;-122.680;2022-07-29T08:34:52;0.70;;;0.70;;
31866;SDS011;18431;45.580;-122.680;2022-07-29T08:37:22;0.68;;;0.68;;
31866;SDS011;18431;45.580;-122.680;2022-07-29T08:39:52;0.60;;;0.60;;
31866;SDS011;18431;45.580;-122.680;2022-07-29T08:42:21;0.62;;;0.62;;
31866;SDS011;18431;45.580;-122.680;2022-07-29T08:44:51;0.68;;;0.68;;
31866;SDS011;18431;45.580;-122.680;2022-07-29T08:47:21;0.60;;;0.60;;
31866;SDS011;18431;45.580;-122.680;2022-07-29T08:49:53;0.70;;;0.70;;
31866;SDS011;18431;45.580;-122.680;2022-07-29T08:52:26;0.80;;;0.80;;
31866;SDS011;18431;45.580;-122.680;2022-07-29T08:54:57;0.72;;;0.72;;
31866;SDS011;18431;45.580;-122.680;2022-07-29T08:57:28;1.20;;;0.80;;
31866;SDS011;18431;45.580;-122.680;2022-07-29T08:59:59;0.70;;;0.70;;
31866;SDS011;18431;45.580;-122.680;2022-07-29T09:02:30;0.78;;;0.78;;
31866;SDS011;18431;45.580;-122.680;2022-07-29T09:05:02;0.60;;;0.60;;
31866;SDS011;18431;45.580;-122.680;2022-07-29T09:07:32;0.70;;;0.70;;
31866;SDS011;18431;45.580;-122.680;2022-07-29T09:10:03;0.60;;;0.60;;
31866;SDS011;18431;45.580;-122.680;2022-07-29T09:12:34;0.70;;;0.70;;
31866;SDS011;18431;45.580;-122.680;2022-07-29T09:15:04;1.02;;;0.80;;
31866;SDS011;18431;45.580;-122.680;2022-07-29T09:17:47;0.50;;;0.50;;
31866;SDS011;18431;45.580;-122.680;2022-07-29T09:20:18;0.78;;;0.78;;
31866;SDS011;18431;45.580;-122.680;2022-07-29T09:22:49;0.65;;;0.65;;
31866;SDS011;18431;45.580;-122.680;2022-07-29T09:25:32;0.70;;;0.70;;
31866;SDS011;18431;45.580;-122.680;2022-07-29T09:30:52;0.62;;;0.62;;
31866;SDS011;18431;45.580;-122.680;2022-07-29T09:33:24;0.70;;;0.70;;
31866;SDS011;18431;45.580;-122.680;2022-07-29T09:36:04;0.80;;;0.80;;
31866;SDS011;18431;45.580;-122.680;2022-07-29T09:38:35;0.70;;;0.70;;
31866;SDS011;18431;45.580;-122.680;2022-07-29T09:41:05;0.95;;;0.80;;
31866;SDS011;18431;45.580;-122.680;2022-07-29T09:43:37;0.70;;;0.70;;
31866;SDS011;18431;45.580;-122.680;2022-07-29T09:46:16;0.65;;;0.65;;
31866;SDS011;18431;45.580;-122.680;2022-07-29T09:48:42;0.70;;;0.70;;
31866;SDS011;18431;45.580;-122.680;2022-07-29T09:51:20;1.22;;;0.72;;
31866;SDS011;18431;45.580;-122.680;2022-07-29T09:53:50;0.55;;;0.55;;
31866;SDS011;18431;45.580;-122.680;2022-07-29T09:56:37;0.80;;;0.80;;
31866;SDS011;18431;45.580;-122.680;2022-07-29T09:59:04;0.88;;;0.88;;
31866;SDS011;18431;45.580;-122.680;2022-07-29T10:01:28;0.80;;;0.80;;
31866;SDS011;18431;45.580;-122.680;2022-07-29T10:03:58;0.88;;;0.88;;
31866;SDS011;18431;45.580;-122.680;2022-07-29T10:06:28;0.85;;;0.85;;
31866;SDS011;18431;45.580;-122.680;2022-07-29T10:09:08;0.98;;;0.93;;
31866;SDS011;18431;45.580;-122.680;2022-07-29T10:11:38;0.90;;;0.90;;
31866;SDS011;18431;45.580;-122.680;2022-07-29T10:14:08;0.85;;;0.85;;
31866;SDS011;18431;45.580;-122.680;2022-07-29T10:16:38;0.70;;;0.70;;
31866;SDS011;18431;45.580;-122.680;2022-07-29T10:19:08;1.02;;;1.02;;
31866;SDS011;18431;45.580;-122.680;2022-07-29T10:21:38;0.90;;;0.90;;
31866;SDS011;18431;45.580;-122.680;2022-07-29T10:24:10;0.80;;;0.80;;
31866;SDS011;18431;45.580;-122.680;2022-07-29T10:26:40;0.70;;;0.70;;
31866;SDS011;18431;45.580;-122.680;2022-07-29T10:29:10;0.82;;;0.82;;
31866;SDS011;18431;45.580;-122.680;2022-07-29T10:31:56;0.88;;;0.88;;
31866;SDS011;18431;45.580;-122.680;2022-07-29T10:37:52;1.00;;;1.00;;
31866;SDS011;18431;45.580;-122.680;2022-07-29T10:40:24;0.80;;;0.80;;
31866;SDS011;18431;45.580;-122.680;2022-07-29T10:43:22;0.82;;;0.82;;
31866;SDS011;18431;45.580;-122.680;2022-07-29T10:45:49;0.90;;;0.90;;
31866;SDS011;18431;45.580;-122.680;2022-07-29T10:48:21;0.80;;;0.80;;
31866;SDS011;18431;45.580;-122.680;2022-07-29T10:50:57;0.90;;;0.90;;
31866;SDS011;18431;45.580;-122.680;2022-07-29T10:53:24;0.78;;;0.78;;
31866;SDS011;18431;45.580;-122.680;2022-07-29T11:01:49;0.90;;;0.90;;
31866;SDS011;18431;45.580;-122.680;2022-07-29T11:07:15;1.00;;;1.00;;
31866;SDS011;18431;45.580;-122.680;2022-07-29T11:10:09;1.00;;;0.90;;
31866;SDS011;18431;45.580;-122.680;2022-07-29T11:15:09;1.07;;;1.07;;
31866;SDS011;18431;45.580;-122.680;2022-07-29T11:20:34;1.00;;;1.00;;
31866;SDS011;18431;45.580;-122.680;2022-07-29T11:23:28;0.70;;;0.70;;
31866;SDS011;18431;45.580;-122.680;2022-07-29T11:34:16;1.07;;;0.98;;
31866;SDS011;18431;45.580;-122.680;2022-07-29T11:44:56;0.95;;;0.95;;
31866;SDS011;18431;45.580;-122.680;2022-07-29T11:47:36;1.30;;;1.20;;
31866;SDS011;18431;45.580;-122.680;2022-07-29T11:50:08;0.95;;;0.95;;
31866;SDS011;18431;45.580;-122.680;2022-07-29T11:52:40;1.05;;;1.00;;
31866;SDS011;18431;45.580;-122.680;2022-07-29T11:55:16;0.90;;;0.90;;
31866;SDS011;18431;45.580;-122.680;2022-07-29T11:57:53;0.90;;;0.90;;
31866;SDS011;18431;45.580;-122.680;2022-07-29T12:03:24;1.30;;;1.20;;
31866;SDS011;18431;45.580;-122.680;2022-07-29T12:05:47;0.90;;;0.90;;
31866;SDS011;18431;45.580;-122.680;2022-07-29T12:08:21;1.10;;;1.00;;
31866;SDS011;18431;45.580;-122.680;2022-07-29T12:10:52;1.20;;;1.20;;
31866;SDS011;18431;45.580;-122.680;2022-07-29T12:13:22;1.17;;;1.17;;
31866;SDS011;18431;45.580;-122.680;2022-07-29T12:15:53;1.20;;;1.10;;
31866;SDS011;18431;45.580;-122.680;2022-07-29T12:18:27;1.20;;;1.10;;
31866;SDS011;18431;45.580;-122.680;2022-07-29T12:20:58;1.15;;;1.15;;
31866;SDS011;18431;45.580;-122.680;2022-07-29T12:23:35;1.00;;;1.00;;
31866;SDS011;18431;45.580;-122.680;2022-07-29T12:26:04;1.02;;;1.02;;
31866;SDS011;18431;45.580;-122.680;2022-07-29T12:28:37;1.17;;;1.17;;
31866;SDS011;18431;45.580;-122.680;2022-07-29T12:31:12;1.00;;;1.00;;
31866;SDS011;18431;45.580;-122.680;2022-07-29T12:33:42;1.20;;;1.20;;
31866;SDS011;18431;45.580;-122.680;2022-07-29T12:36:13;1.00;;;1.00;;
31866;SDS011;18431;45.580;-122.680;2022-07-29T12:38:43;1.10;;;1.10;;
31866;SDS011;18431;45.580;-122.680;2022-07-29T12:41:14;1.20;;;1.10;;
31866;SDS011;18431;45.580;-122.680;2022-07-29T12:43:53;1.20;;;1.10;;
31866;SDS011;18431;45.580;-122.680;2022-07-29T12:46:23;1.00;;;1.00;;
31866;SDS011;18431;45.580;-122.680;2022-07-29T12:48:53;1.10;;;1.10;;
31866;SDS011;18431;45.580;-122.680;2022-07-29T12:51:34;1.10;;;1.07;;
31866;SDS011;18431;45.580;-122.680;2022-07-29T12:54:12;0.95;;;0.95;;
31866;SDS011;18431;45.580;-122.680;2022-07-29T12:56:42;1.25;;;1.00;;
31866;SDS011;18431;45.580;-122.680;2022-07-29T12:59:17;0.90;;;0.90;;
31866;SDS011;18431;45.580;-122.680;2022-07-29T13:01:50;1.22;;;1.12;;
31866;SDS011;18431;45.580;-122.680;2022-07-29T13:04:24;1.15;;;1.15;;
31866;SDS011;18431;45.580;-122.680;2022-07-29T13:07:04;1.00;;;1.00;;
31866;SDS011;18431;45.580;-122.680;2022-07-29T13:09:43;1.30;;;1.20;;
31866;SDS011;18431;45.580;-122.680;2022-07-29T13:12:13;1.00;;;1.00;;
31866;SDS011;18431;45.580;-122.680;2022-07-29T13:14:47;1.10;;;1.10;;
31866;SDS011;18431;45.580;-122.680;2022-07-29T13:17:18;1.07;;;1.07;;
31866;SDS011;18431;45.580;-122.680;2022-07-29T13:19:50;0.80;;;0.80;;
31866;SDS011;18431;45.580;-122.680;2022-07-29T13:22:22;0.70;;;0.70;;
31866;SDS011;18431;45.580;-122.680;2022-07-29T13:24:55;0.95;;;0.80;;
31866;SDS011;18431;45.580;-122.680;2022-07-29T13:27:30;1.85;;;0.90;;
31866;SDS011;18431;45.580;-122.680;2022-07-29T13:30:18;0.70;;;0.70;;
31866;SDS011;18431;45.580;-122.680;2022-07-29T13:32:48;0.70;;;0.70;;
31866;SDS011;18431;45.580;-122.680;2022-07-29T13:35:19;0.60;;;0.60;;
31866;SDS011;18431;45.580;-122.680;2022-07-29T13:37:49;0.80;;;0.80;;
31866;SDS011;18431;45.580;-122.680;2022-07-29T13:40:19;0.70;;;0.70;;
31866;SDS011;18431;45.580;-122.680;2022-07-29T13:42:49;0.90;;;0.90;;
31866;SDS011;18431;45.580;-122.680;2022-07-29T13:45:19;0.80;;;0.80;;
31866;SDS011;18431;45.580;-122.680;2022-07-29T13:47:49;0.90;;;0.80;;
31866;SDS011;18431;45.580;-122.680;2022-07-29T13:50:19;0.80;;;0.80;;
31866;SDS011;18431;45.580;-122.680;2022-07-29T13:52:49;0.75;;;0.75;;
31866;SDS011;18431;45.580;-122.680;2022-07-29T13:55:19;0.93;;;0.93;;
31866;SDS011;18431;45.580;-122.680;2022-07-29T13:57:48;0.70;;;0.70;;
31866;SDS011;18431;45.580;-122.680;2022-07-29T14:00:19;0.80;;;0.80;;
31866;SDS011;18431;45.580;-122.680;2022-07-29T14:02:49;0.80;;;0.80;;
31866;SDS011;18431;45.580;-122.680;2022-07-29T14:05:19;0.72;;;0.72;;
31866;SDS011;18431;45.580;-122.680;2022-07-29T14:07:48;0.85;;;0.85;;
31866;SDS011;18431;45.580;-122.680;2022-07-29T14:10:18;0.90;;;0.90;;
31866;SDS011;18431;45.580;-122.680;2022-07-29T14:12:48;0.80;;;0.80;;
31866;SDS011;18431;45.580;-122.680;2022-07-29T14:15:18;0.88;;;0.80;;
31866;SDS011;18431;45.580;-122.680;2022-07-29T14:17:48;0.95;;;0.95;;
31866;SDS011;18431;45.580;-122.680;2022-07-29T14:20:17;0.70;;;0.70;;
31866;SDS011;18431;45.580;-122.680;2022-07-29T14:22:47;0.80;;;0.80;;
31866;SDS011;18431;45.580;-122.680;2022-07-29T14:25:17;0.80;;;0.80;;
31866;SDS011;18431;45.580;-122.680;2022-07-29T14:27:47;0.70;;;0.70;;
31866;SDS011;18431;45.580;-122.680;2022-07-29T14:30:17;0.93;;;0.80;;
31866;SDS011;18431;45.580;-122.680;2022-07-29T14:32:47;0.72;;;0.72;;
31866;SDS011;18431;45.580;-122.680;2022-07-29T14:35:17;0.88;;;0.88;;
31866;SDS011;18431;45.580;-122.680;2022-07-29T14:37:46;0.90;;;0.88;;
31866;SDS011;18431;45.580;-122.680;2022-07-29T14:40:16;1.10;;;1.00;;
31866;SDS011;18431;45.580;-122.680;2022-07-29T14:42:46;0.82;;;0.82;;
31866;SDS011;18431;45.580;-122.680;2022-07-29T14:45:16;1.02;;;0.90;;
31866;SDS011;18431;45.580;-122.680;2022-07-29T14:47:46;1.20;;;1.10;;
31866;SDS011;18431;45.580;-122.680;2022-07-29T14:50:17;0.90;;;0.90;;
31866;SDS011;18431;45.580;-122.680;2022-07-29T14:52:47;0.90;;;0.90;;
31866;SDS011;18431;45.580;-122.680;2022-07-29T14:55:17;1.05;;;1.05;;
31866;SDS011;18431;45.580;-122.680;2022-07-29T14:57:47;0.70;;;0.70;;
31866;SDS011;18431;45.580;-122.680;2022-07-29T15:00:17;0.60;;;0.60;;
31866;SDS011;18431;45.580;-122.680;2022-07-29T15:02:47;0.68;;;0.68;;
31866;SDS011;18431;45.580;-122.680;2022-07-29T15:05:17;1.17;;;0.80;;
31866;SDS011;18431;45.580;-122.680;2022-07-29T15:07:47;0.80;;;0.80;;
31866;SDS011;18431;45.580;-122.680;2022-07-29T15:10:17;0.82;;;0.82;;
31866;SDS011;18431;45.580;-122.680;2022-07-29T15:12:47;1.10;;;0.70;;
31866;SDS011;18431;45.580;-122.680;2022-07-29T15:15:17;0.85;;;0.85;;
31866;SDS011;18431;45.580;-122.680;2022-07-29T15:17:47;0.82;;;0.80;;
31866;SDS011;18431;45.580;-122.680;2022-07-29T15:20:17;1.55;;;0.98;;
31866;SDS011;18431;45.580;-122.680;2022-07-29T15:22:48;0.93;;;0.80;;
31866;SDS011;18431;45.580;-122.680;2022-07-29T15:25:18;0.75;;;0.75;;
31866;SDS011;18431;45.580;-122.680;2022-07-29T15:27:48;0.80;;;0.80;;
31866;SDS011;18431;45.580;-122.680;2022-07-29T15:30:18;0.88;;;0.88;;